Time;durP1;ratioP1;P1;durP2;ratioP2;P2;SDS_P1;SDS_P2;PMS_P1;PMS_P2;Temp;Humidity;BMP_temperature;BMP_pressure;BME280_temperature;BME280_humidity;BME280_pressure;Samples;Min_cycle;Max_cycle;Signal;HPM_P1;HPM_P2
2022/04/03 00:00:56;;;;;;;10.90;5.72;;;;;;;-1.10;64.88;99372.66;5074675;28;20050;-74
2022/04/03 00:03:22;;;;;;;15.85;6.57;;;;;;;-1.15;65.15;99373.53;5074254;28;20033;-74
2022/04/03 00:05:47;;;;;;;11.93;6.10;;;;;;;-1.28;65.65;99350.56;5074727;28;20021;-74
2022/04/03 00:08:13;;;;;;;12.23;6.32;;;;;;;-1.15;66.00;99374.38;5074419;28;20102;-74
2022/04/03 00:10:39;;;;;;;9.80;5.38;;;;;;;-1.16;65.51;99377.78;5074970;28;20028;-74
2022/04/03 00:13:06;;;;;;;13.80;6.38;;;;;;;-1.27;66.28;99365.03;5074279;28;20544;-74
2022/04/03 00:15:32;;;;;;;12.80;6.68;;;;;;;-1.30;66.65;99359.13;5074472;28;20024;-74
2022/04/03 00:17:57;;;;;;;12.57;6.72;;;;;;;-1.25;66.74;99370.16;5074318;28;20379;-73
2022/04/03 00:20:23;;;;;;;11.55;6.35;;;;;;;-1.31;66.71;99365.06;5074184;28;20033;-74
2022/04/03 00:22:49;;;;;;;11.80;6.55;;;;;;;-1.27;66.96;99372.72;5074496;28;20028;-73
2022/04/03 00:25:16;;;;;;;12.45;5.85;;;;;;;-1.31;66.83;99367.63;5074141;28;20024;-74
2022/04/03 00:27:41;;;;;;;9.70;6.60;;;;;;;-1.25;67.26;99375.28;5074179;28;20465;-73
2022/04/03 00:30:07;;;;;;;11.88;6.18;;;;;;;-1.45;67.04;99351.50;5074002;28;20021;-74
2022/04/03 00:32:33;;;;;;;13.93;7.00;;;;;;;-1.29;67.67;99384.66;5074021;28;20479;-74
2022/04/03 00:34:59;;;;;;;15.63;7.38;;;;;;;-1.31;68.58;99390.59;5073718;28;20033;-74
2022/04/03 00:37:24;;;;;;;12.00;6.28;;;;;;;-1.32;68.22;99379.53;5073956;28;20039;-74
2022/04/03 00:39:50;;;;;;;9.95;6.25;;;;;;;-1.35;68.46;99379.56;5074184;28;20111;-74
2022/04/03 00:42:15;;;;;;;10.18;6.35;;;;;;;-1.36;68.70;99382.13;5073866;28;20032;-74
2022/04/03 00:44:41;;;;;;;14.27;6.47;;;;;;;-1.44;69.15;99371.06;5074065;28;20031;-74
2022/04/03 00:47:07;;;;;;;10.85;6.03;;;;;;;-1.54;69.12;99360.03;5073444;28;20044;-74
2022/04/03 00:49:32;;;;;;;12.40;6.53;;;;;;;-1.47;69.55;99377.06;5074402;28;20535;-73
2022/04/03 00:51:58;;;;;;;10.30;6.15;;;;;;;-1.48;69.66;99388.09;5073949;28;20025;-73
2022/04/03 00:54:23;;;;;;;14.32;7.20;;;;;;;-1.54;69.66;99378.75;5073480;28;20028;-74
2022/04/03 00:56:49;;;;;;;15.68;7.30;;;;;;;-1.53;70.12;99384.72;5074031;28;20103;-74
2022/04/03 00:59:15;;;;;;;13.60;6.40;;;;;;;-1.58;69.91;99377.06;5073465;28;20718;-74
2022/04/03 01:01:44;;;;;;;10.32;6.45;;;;;;;-1.54;70.42;99393.22;5073528;28;20044;-74
2022/04/03 01:04:10;;;;;;;12.57;6.68;;;;;;;-1.52;70.93;99396.63;5073095;28;20542;-74
2022/04/03 01:06:36;;;;;;;12.52;6.25;;;;;;;-1.53;70.71;99395.78;5073534;28;20029;-74
2022/04/03 01:09:02;;;;;;;10.60;6.30;;;;;;;-1.55;71.18;99397.50;5073511;28;20081;-74
2022/04/03 01:11:29;;;;;;;15.98;7.15;;;;;;;-1.56;71.53;99402.59;5073465;28;20032;-74
2022/04/03 01:13:54;;;;;;;11.38;6.38;;;;;;;-1.64;71.31;99384.75;5073322;28;20459;-73
2022/04/03 01:16:20;;;;;;;9.85;6.60;;;;;;;-1.64;71.27;99389.84;5073006;28;20067;-74
2022/04/03 01:18:46;;;;;;;11.98;6.07;;;;;;;-1.62;71.24;99390.69;5073438;28;20108;-73
2022/04/03 01:21:12;;;;;;;9.40;5.90;;;;;;;-1.58;71.47;99394.09;5073112;28;20226;-74
2022/04/03 01:23:37;;;;;;;9.38;5.53;;;;;;;-1.68;72.08;99382.22;5073186;28;20049;-74
2022/04/03 01:26:03;;;;;;;8.60;5.57;;;;;;;-1.71;71.96;99380.50;5073182;28;20085;-74
2022/04/03 01:28:29;;;;;;;10.50;5.65;;;;;;;-1.71;72.19;99379.66;5073027;28;20031;-74
2022/04/03 01:30:54;;;;;;;11.40;6.10;;;;;;;-1.72;72.57;99372.84;5072902;28;20032;-74
2022/04/03 01:33:20;;;;;;;9.63;6.30;;;;;;;-1.80;72.52;99370.31;5072851;28;20039;-74
2022/04/03 01:35:46;;;;;;;10.65;6.20;;;;;;;-1.62;72.30;99406.00;5072825;28;20503;-74
2022/04/03 01:38:11;;;;;;;11.75;5.80;;;;;;;-1.63;72.92;99401.75;5072663;28;20033;-74
2022/04/03 01:40:37;;;;;;;18.15;6.22;;;;;;;-1.73;72.41;99386.44;5072852;28;20025;-74
2022/04/03 01:43:03;;;;;;;13.25;6.63;;;;;;;-1.64;72.64;99405.19;5072791;28;20384;-74
2022/04/03 01:45:29;;;;;;;12.25;6.85;;;;;;;-1.76;72.48;99393.28;5072396;28;20032;-74
2022/04/03 01:47:55;;;;;;;12.52;6.95;;;;;;;-1.70;72.69;99404.31;5071898;28;20044;-74
2022/04/03 01:50:20;;;;;;;13.63;7.60;;;;;;;-1.65;72.63;99407.72;5072498;28;20507;-74
2022/04/03 01:52:45;;;;;;;12.32;6.80;;;;;;;-1.76;72.34;99398.38;5072701;28;20090;-74
2022/04/03 01:55:11;;;;;;;13.23;7.07;;;;;;;-1.79;72.42;99394.97;5072506;28;20020;-74
2022/04/03 01:57:37;;;;;;;12.55;7.50;;;;;;;-1.79;72.50;99403.47;5072634;28;20029;-74
2022/04/03 02:00:06;;;;;;;10.15;5.82;;;;;;;-1.78;72.48;99405.16;5072370;28;20511;-74
2022/04/03 02:02:32;;;;;;;12.48;6.75;;;;;;;-1.76;72.64;99408.59;5072563;28;20064;-74
2022/04/03 02:04:58;;;;;;;11.00;6.20;;;;;;;-1.85;72.81;99408.59;5072404;28;20111;-74
2022/04/03 02:07:24;;;;;;;14.32;6.72;;;;;;;-1.79;72.77;99416.25;5072033;28;20112;-74
2022/04/03 02:09:50;;;;;;;12.13;6.55;;;;;;;-1.91;72.71;99410.28;5072368;28;20020;-74
2022/04/03 02:12:15;;;;;;;14.07;6.53;;;;;;;-1.86;72.88;99421.34;5072256;28;20074;-74
2022/04/03 02:14:40;;;;;;;15.45;6.75;;;;;;;-1.99;72.94;99400.06;5072080;28;20078;-74
2022/04/03 02:17:07;;;;;;;15.27;7.53;;;;;;;-1.88;73.58;99417.94;5072069;28;20028;-74
2022/04/03 02:19:32;;;;;;;12.43;6.47;;;;;;;-2.02;73.34;99408.59;5072215;28;20036;-74
2022/04/03 02:21:57;;;;;;;13.52;7.07;;;;;;;-2.01;74.16;99407.75;5072187;28;20025;-74
2022/04/03 02:24:23;;;;;;;10.85;6.75;;;;;;;-2.00;74.64;99426.44;5071874;28;20029;-74
2022/04/03 02:26:48;;;;;;;10.20;6.45;;;;;;;-2.04;75.02;99417.94;5071810;28;20472;-74
2022/04/03 02:29:14;;;;;;;11.30;6.50;;;;;;;-1.98;75.50;99429.88;5071856;28;20025;-74
2022/04/03 02:31:39;;;;;;;9.75;6.13;;;;;;;-2.12;76.01;99414.53;5072110;28;20025;-74
2022/04/03 02:34:05;;;;;;;12.25;6.28;;;;;;;-2.07;76.56;99428.13;5072008;28;20029;-74
2022/04/03 02:36:31;;;;;;;13.48;6.45;;;;;;;-2.11;76.83;99431.53;5071637;28;20114;-74
2022/04/03 02:38:56;;;;;;;10.10;6.07;;;;;;;-2.06;77.79;99434.13;5071919;28;20079;-74
2022/04/03 02:41:21;;;;;;;11.27;6.50;;;;;;;-2.14;78.71;99433.25;5071623;28;20067;-74
2022/04/03 02:43:47;;;;;;;9.93;6.20;;;;;;;-2.09;79.19;99439.22;5071688;28;20024;-74
2022/04/03 02:46:12;;;;;;;11.60;6.32;;;;;;;-2.11;79.98;99441.75;5071633;28;20044;-74
2022/04/03 02:48:37;;;;;;;13.15;6.30;;;;;;;-2.27;81.09;99417.94;5071967;28;20572;-74
2022/04/03 02:51:03;;;;;;;11.65;6.93;;;;;;;-2.18;81.42;99445.16;5071863;28;20036;-74
2022/04/03 02:53:28;;;;;;;11.32;6.35;;;;;;;-2.28;82.21;99431.50;5071562;28;20094;-74
2022/04/03 02:55:54;;;;;;;12.88;6.28;;;;;;;-2.35;82.33;99426.44;5071731;28;20032;-74
2022/04/03 03:05:07;;;;;;;10.68;6.38;;;;;;;-2.29;84.48;99455.31;5071754;28;20051;-74
2022/04/03 03:07:38;;;;;;;9.85;5.60;;;;;;;-2.31;85.78;99461.28;5018126;28;20033;-74
2022/04/03 03:10:34;;;;;;;12.60;5.85;;;;;;;-2.35;85.87;99455.34;5035919;28;20080;-74
2022/04/03 03:13:06;;;;;;;9.30;5.75;;;;;;;-2.35;86.30;99462.13;5071478;28;20082;-74
2022/04/03 03:18:36;;;;;;;14.02;5.50;;;;;;;-2.53;87.49;99438.28;5071293;28;20535;-74
2022/04/03 03:21:07;;;;;;;11.20;6.10;;;;;;;-2.42;87.84;99468.06;5019824;28;20476;-74
2022/04/03 03:23:59;;;;;;;12.00;6.82;;;;;;;-2.41;88.60;99464.66;5054633;28;20029;-74
2022/04/03 03:29:41;;;;;;;10.77;5.75;;;;;;;-2.42;89.91;99465.50;5027609;28;20033;-74
2022/04/03 03:32:17;;;;;;;9.75;5.65;;;;;;;-2.51;90.27;99451.88;5009017;28;20498;-74
2022/04/03 03:35:15;;;;;;;11.60;5.72;;;;;;;-2.40;90.20;99463.78;4976268;28;20081;-74
2022/04/03 03:37:45;;;;;;;10.43;5.35;;;;;;;-2.49;90.54;99451.88;4938350;29;20043;-74
2022/04/03 03:40:23;;;;;;;8.40;5.63;;;;;;;-2.43;90.86;99456.16;4904199;29;20046;-74
2022/04/03 03:43:29;;;;;;;8.13;5.13;;;;;;;-2.38;91.17;99470.63;4889966;29;20039;-74
2022/04/03 03:45:56;;;;;;;7.95;5.43;;;;;;;-2.37;91.07;99474.88;4912475;29;20046;-74
2022/04/03 03:48:43;;;;;;;7.55;5.05;;;;;;;-2.35;91.49;99480.00;4912161;29;20107;-74
2022/04/03 03:51:09;;;;;;;7.30;5.80;;;;;;;-2.34;91.87;99489.34;4912860;29;20047;-74
2022/04/03 03:53:34;;;;;;;12.82;5.63;;;;;;;-2.30;92.12;99488.50;4913017;29;20037;-74
2022/04/03 03:56:00;;;;;;;10.07;5.43;;;;;;;-2.26;92.14;99485.97;4912815;29;20743;-74
2022/04/03 03:58:25;;;;;;;12.15;5.75;;;;;;;-2.32;92.11;99474.88;4912630;29;20044;-74
2022/04/03 04:00:51;;;;;;;9.80;5.55;;;;;;;-2.19;91.65;99491.94;4912760;29;20076;-74
2022/04/03 04:03:16;;;;;;;8.15;5.13;;;;;;;-2.19;91.87;99485.97;4945288;28;20082;-74
2022/04/03 04:05:42;;;;;;;10.77;5.53;;;;;;;-2.19;92.21;99491.94;4970085;28;20042;-74
2022/04/03 04:08:08;;;;;;;8.80;5.43;;;;;;;-2.31;92.17;99480.00;4969966;28;20043;-74
2022/04/03 04:10:33;;;;;;;11.32;5.50;;;;;;;-2.33;92.47;99480.84;4971201;28;20039;-74
2022/04/03 04:12:59;;;;;;;11.77;6.47;;;;;;;-2.31;92.58;99494.47;4973473;28;20035;-74
2022/04/03 04:15:25;;;;;;;7.20;5.30;;;;;;;-2.37;92.75;99486.78;4998588;28;20124;-74
2022/04/03 04:17:54;;;;;;;8.48;5.10;;;;;;;-2.44;93.00;99478.25;5034267;28;20492;-74
2022/04/03 04:20:19;;;;;;;7.90;5.53;;;;;;;-2.35;93.16;99500.41;5034496;28;20040;-74
2022/04/03 04:22:46;;;;;;;8.77;5.43;;;;;;;-2.32;92.99;99513.13;5034706;28;20033;-74
2022/04/03 04:25:13;;;;;;;8.63;5.43;;;;;;;-2.37;93.19;99513.13;5034303;28;20025;-74
2022/04/03 04:27:39;;;;;;;8.38;5.50;;;;;;;-2.40;93.20;99514.81;5034372;28;20048;-74
2022/04/03 04:30:06;;;;;;;12.40;5.32;;;;;;;-2.51;93.66;99507.13;5034331;28;20075;-74
2022/04/03 04:32:32;;;;;;;10.20;6.18;;;;;;;-2.43;93.79;99530.13;5034281;28;20113;-74
2022/04/03 04:34:57;;;;;;;10.63;6.18;;;;;;;-2.47;94.11;99531.81;5034335;28;20048;-74
2022/04/03 04:37:23;;;;;;;7.13;5.45;;;;;;;-2.48;94.17;99529.25;5034389;28;20037;-74
2022/04/03 04:39:48;;;;;;;11.73;5.38;;;;;;;-2.49;94.80;99538.56;5034493;28;20036;-74
2022/04/03 04:42:13;;;;;;;13.38;5.63;;;;;;;-2.51;94.85;99533.47;5033896;28;20101;-74
2022/04/03 04:44:39;;;;;;;7.45;5.03;;;;;;;-2.51;94.88;99535.19;5033990;28;20044;-73
2022/04/03 04:47:05;;;;;;;8.50;5.47;;;;;;;-2.59;94.79;99529.19;5047797;28;20059;-74
2022/04/03 04:49:31;;;;;;;7.53;5.65;;;;;;;-2.47;94.97;99541.16;5073987;28;20028;-74
2022/04/03 04:51:57;;;;;;;9.13;5.53;;;;;;;-2.51;95.07;99535.19;5073934;28;20028;-74
2022/04/03 04:54:23;;;;;;;9.90;5.97;;;;;;;-2.48;94.99;99539.47;5073691;28;20020;-74
2022/04/03 04:56:48;;;;;;;9.40;6.22;;;;;;;-2.36;94.82;99553.09;5073817;28;20037;-74
2022/04/03 04:59:14;;;;;;;10.75;6.13;;;;;;;-2.33;94.46;99550.56;5073480;28;20032;-74
2022/04/03 05:01:39;;;;;;;9.20;6.03;;;;;;;-2.34;94.33;99545.44;5073833;28;20024;-74
2022/04/03 05:04:06;;;;;;;11.35;6.43;;;;;;;-2.23;94.20;99555.69;5073682;28;20020;-74
2022/04/03 05:06:33;;;;;;;12.32;6.55;;;;;;;-2.18;94.01;99562.53;5073360;28;20025;-74
2022/04/03 05:08:59;;;;;;;13.60;6.95;;;;;;;-2.28;94.13;99535.25;5073435;28;20081;-73
2022/04/03 05:11:25;;;;;;;11.82;6.35;;;;;;;-2.10;93.48;99554.91;5072910;28;20426;-73
2022/04/03 05:13:51;;;;;;;10.27;6.82;;;;;;;-1.95;93.23;99560.03;5073076;28;20040;-73
2022/04/03 05:16:16;;;;;;;13.13;6.13;;;;;;;-1.94;92.43;99553.22;5073051;28;20033;-73
2022/04/03 05:18:42;;;;;;;11.13;5.93;;;;;;;-1.86;92.03;99556.63;5073207;28;20105;-73
2022/04/03 05:21:09;;;;;;;14.23;6.28;;;;;;;-1.69;91.42;99579.63;5072989;28;20067;-73
2022/04/03 05:23:34;;;;;;;12.55;8.20;;;;;;;-1.69;90.84;99569.44;5072762;28;20476;-74
2022/04/03 05:26:00;;;;;;;15.15;8.65;;;;;;;-1.42;90.27;99579.69;5073666;28;20107;-74
2022/04/03 05:28:26;;;;;;;13.73;6.47;;;;;;;-1.44;88.84;99557.53;5072738;28;20029;-74
2022/04/03 05:30:53;;;;;;;11.65;6.47;;;;;;;-1.26;88.23;99580.56;5073321;28;20035;-74
2022/04/03 05:33:18;;;;;;;9.55;6.15;;;;;;;-1.15;87.90;99580.53;5073102;28;20100;-74
2022/04/03 05:35:44;;;;;;;12.68;6.80;;;;;;;-1.11;87.07;99582.25;5073196;28;20173;-74
2022/04/03 05:38:09;;;;;;;7.75;5.65;;;;;;;-1.04;86.60;99591.63;5072986;28;20372;-74
2022/04/03 05:40:35;;;;;;;8.75;6.10;;;;;;;-1.11;86.53;99561.78;5072633;28;20388;-74
2022/04/03 05:43:00;;;;;;;10.38;6.43;;;;;;;-0.94;85.68;99561.78;5072804;28;20024;-74
2022/04/03 05:45:27;;;;;;;9.77;6.40;;;;;;;-0.38;85.33;99597.47;5072702;28;20111;-74
2022/04/03 05:47:53;;;;;;;9.98;6.45;;;;;;;-0.09;83.55;99579.41;5072530;28;20049;-74
2022/04/03 05:50:20;;;;;;;12.52;6.72;;;;;;;0.33;81.45;99586.88;5072356;28;20379;-74
2022/04/03 05:52:50;;;;;;;12.07;6.93;;;;;;;0.68;79.75;99584.06;5072519;28;20024;-74
2022/04/03 05:55:18;;;;;;;15.73;6.72;;;;;;;1.06;76.20;99596.56;5072151;28;20491;-74
2022/04/03 05:57:45;;;;;;;9.48;5.80;;;;;;;1.46;74.83;99597.03;5072449;28;20531;-74
2022/04/03 06:00:12;;;;;;;13.38;5.93;;;;;;;1.88;72.65;99570.88;5072690;28;20055;-74
2022/04/03 06:02:51;;;;;;;11.50;6.38;;;;;;;2.25;71.17;99602.06;5072416;28;20032;-74
2022/04/03 06:05:18;;;;;;;14.93;6.45;;;;;;;2.11;68.72;99575.72;5072050;28;20399;-74
2022/04/03 06:07:44;;;;;;;11.80;6.43;;;;;;;2.31;68.55;99603.69;5072233;28;20112;-74
2022/04/03 06:10:09;;;;;;;13.55;6.75;;;;;;;2.72;67.48;99598.81;5072605;28;20585;-74
2022/04/03 06:12:35;;;;;;;10.40;6.00;;;;;;;3.68;65.03;99592.84;5072232;28;20036;-74
2022/04/03 06:15:00;;;;;;;10.65;6.35;;;;;;;4.40;61.85;99604.22;5072454;28;20490;-74
2022/04/03 06:17:26;;;;;;;11.32;6.93;;;;;;;4.61;60.76;99610.63;5072104;28;20028;-74
2022/04/03 06:19:51;;;;;;;10.90;6.35;;;;;;;4.82;58.71;99604.13;5072263;28;20460;-75
2022/04/03 06:22:16;;;;;;;8.23;5.45;;;;;;;5.00;57.68;99604.50;5071902;28;20064;-74
2022/04/03 06:24:42;;;;;;;12.80;6.47;;;;;;;4.72;56.56;99617.25;5072348;28;20101;-74
2022/04/03 06:27:07;;;;;;;11.00;6.70;;;;;;;4.10;57.50;99606.59;5072203;28;20031;-74
2022/04/03 06:29:32;;;;;;;11.35;6.75;;;;;;;3.64;58.37;99612.66;5071997;28;20029;-74
2022/04/03 06:31:58;;;;;;;11.18;7.13;;;;;;;3.96;59.77;99619.78;5072416;28;20031;-74
2022/04/03 06:34:24;;;;;;;10.73;6.35;;;;;;;4.23;58.19;99625.22;5071350;28;20060;-74
2022/04/03 06:36:50;;;;;;;10.50;6.43;;;;;;;4.34;57.68;99617.25;5053974;28;20090;-75
2022/04/03 06:39:16;;;;;;;6.97;4.95;;;;;;;4.62;57.20;99612.31;5071875;28;20027;-75
2022/04/03 06:41:42;;;;;;;8.32;5.28;;;;;;;5.57;54.88;99617.72;5072076;28;20038;-75
2022/04/03 06:44:08;;;;;;;10.75;5.32;;;;;;;6.13;52.35;99603.25;5072201;28;20035;-74
2022/04/03 06:46:34;;;;;;;8.13;5.57;;;;;;;7.39;51.74;99612.22;5071643;28;20028;-74
2022/04/03 06:49:00;;;;;;;7.40;5.13;;;;;;;7.86;45.99;99596.72;5071939;28;20021;-74
2022/04/03 06:51:26;;;;;;;9.98;4.60;;;;;;;7.38;46.17;99616.56;5071460;28;20077;-74
2022/04/03 06:53:52;;;;;;;9.98;4.80;;;;;;;6.44;47.66;99616.09;5071944;28;20100;-74
2022/04/03 06:56:17;;;;;;;8.40;5.47;;;;;;;6.32;49.48;99626.84;5071755;28;20029;-75
2022/04/03 06:58:42;;;;;;;9.35;5.40;;;;;;;6.20;49.12;99609.09;5071913;28;20384;-74
2022/04/03 07:01:08;;;;;;;16.38;7.30;;;;;;;6.16;48.17;99626.44;5071789;28;20025;-75
2022/04/03 07:03:33;;;;;;;11.90;7.88;;;;;;;5.71;50.03;99619.03;5071374;28;20021;-75
2022/04/03 07:05:59;;;;;;;12.02;6.80;;;;;;;5.96;50.10;99608.06;5071648;28;20075;-75
2022/04/03 07:08:25;;;;;;;10.15;6.70;;;;;;;6.37;49.63;99617.19;5071110;28;20425;-75
2022/04/03 07:10:50;;;;;;;7.68;5.75;;;;;;;6.73;48.92;99622.13;5071685;28;20593;-75
2022/04/03 07:13:16;;;;;;;6.50;4.75;;;;;;;8.20;47.16;99620.50;5071772;28;20108;-75
2022/04/03 07:15:43;;;;;;;9.50;5.65;;;;;;;8.87;43.55;99630.06;5071357;28;20048;-75
2022/04/03 07:18:08;;;;;;;14.98;7.60;;;;;;;8.68;42.74;99635.16;5071608;28;20039;-74
2022/04/03 07:20:34;;;;;;;16.63;9.35;;;;;;;7.99;43.26;99626.50;5071402;28;20025;-74
2022/04/03 07:23:00;;;;;;;14.95;9.13;;;;;;;7.47;44.28;99624.00;5071474;28;20033;-74
2022/04/03 07:25:25;;;;;;;10.18;6.10;;;;;;;8.10;44.63;99644.28;5071496;28;20066;-74
2022/04/03 07:27:51;;;;;;;9.35;5.72;;;;;;;9.45;41.33;99626.84;5071473;28;20380;-74
2022/04/03 07:30:16;;;;;;;12.52;5.78;;;;;;;9.96;40.15;99628.09;5071588;28;20116;-74
2022/04/03 07:32:42;;;;;;;10.52;6.60;;;;;;;12.94;36.53;99620.88;5071298;28;20028;-74
2022/04/03 07:35:08;;;;;;;10.18;6.35;;;;;;;16.40;30.11;99632.94;5071361;28;20464;-74
2022/04/03 07:37:34;;;;;;;8.80;5.38;;;;;;;18.39;26.94;99619.81;5071181;28;20048;-74
2022/04/03 07:40:00;;;;;;;6.80;4.40;;;;;;;18.71;25.29;99633.09;5071644;28;20103;-74
2022/04/03 07:42:25;;;;;;;10.20;7.35;;;;;;;20.10;23.67;99632.03;5071247;28;20021;-75
2022/04/03 07:44:51;;;;;;;9.35;6.93;;;;;;;20.88;22.23;99630.44;5071815;28;20430;-75
2022/04/03 07:47:17;;;;;;;9.05;5.07;;;;;;;20.73;21.51;99642.44;5075016;28;20135;-75
2022/04/03 07:49:42;;;;;;;6.80;5.38;;;;;;;20.52;21.20;99637.22;5074768;28;20028;-75
2022/04/03 07:52:07;;;;;;;4.78;3.92;;;;;;;18.38;22.59;99637.44;5074920;28;20032;-75
2022/04/03 07:54:33;;;;;;;6.82;5.07;;;;;;;17.10;24.32;99653.31;5074892;28;20450;-75
2022/04/03 07:56:58;;;;;;;8.30;5.38;;;;;;;15.08;25.38;99664.63;5075001;28;20388;-75
2022/04/03 07:59:24;;;;;;;11.20;7.80;;;;;;;12.37;28.06;99651.91;5074790;28;20024;-74
2022/04/03 08:01:49;;;;;;;8.30;6.03;;;;;;;10.32;31.83;99675.06;5074978;28;20031;-74
2022/04/03 08:04:15;;;;;;;18.25;11.35;;;;;;;9.10;33.98;99685.44;5074802;28;20028;-74
2022/04/03 08:06:40;;;;;;;19.35;9.05;;;;;;;8.58;35.46;99672.75;5074351;28;20150;-74
2022/04/03 08:09:07;;;;;;;12.63;8.32;;;;;;;8.48;36.02;99672.28;5074824;28;20031;-74
2022/04/03 08:11:33;;;;;;;6.35;3.88;;;;;;;7.55;35.95;99693.72;5074485;28;20035;-74
2022/04/03 08:13:58;;;;;;;18.13;10.57;;;;;;;6.82;37.68;99685.69;5074622;28;20062;-74
2022/04/03 08:16:24;;;;;;;20.17;9.85;;;;;;;6.31;38.32;99681.19;5074402;28;20126;-74
2022/04/03 08:18:49;;;;;;;17.98;8.77;;;;;;;5.97;39.41;99693.31;5074549;28;20025;-74
2022/04/03 08:21:18;;;;;;;18.17;11.98;;;;;;;5.45;39.94;99683.47;5074326;28;20020;-74
2022/04/03 08:23:43;;;;;;;37.20;17.45;;;;;;;5.23;41.15;99699.50;5074199;28;20067;-74
2022/04/03 08:26:11;;;;;;;30.50;12.00;;;;;;;5.36;41.50;99678.53;5074389;28;20029;-73
2022/04/03 08:28:36;;;;;;;13.00;7.78;;;;;;;5.69;40.40;99685.44;5074383;28;20052;-74
2022/04/03 08:31:02;;;;;;;5.28;4.35;;;;;;;5.72;38.98;99689.66;5074273;28;20139;-74
2022/04/03 08:33:27;;;;;;;7.05;4.30;;;;;;;5.34;39.58;99673.41;5073984;28;20353;-73
2022/04/03 08:35:52;;;;;;;14.35;7.40;;;;;;;4.99;40.59;99675.09;5074108;28;20033;-74
2022/04/03 08:38:18;;;;;;;21.75;11.40;;;;;;;4.61;41.00;99688.03;5074390;28;20032;-73
2022/04/03 08:40:44;;;;;;;16.20;9.02;;;;;;;4.48;41.67;99690.88;5074056;28;20032;-74
2022/04/03 08:43:09;;;;;;;14.75;7.57;;;;;;;4.20;40.39;99680.25;5074052;28;20031;-74
2022/04/03 08:45:35;;;;;;;38.90;19.83;;;;;;;3.97;40.89;99688.47;5073747;28;20036;-74
2022/04/03 08:48:01;;;;;;;16.88;9.23;;;;;;;4.33;41.03;99686.00;5074114;28;20131;-73
2022/04/03 08:50:47;;;;;;;17.80;9.95;;;;;;;4.82;40.68;99686.69;5073557;28;20025;-73
2022/04/03 08:53:12;;;;;;;12.18;6.95;;;;;;;5.18;39.06;99701.34;5074053;28;20028;-73
2022/04/03 08:55:38;;;;;;;10.80;6.18;;;;;;;5.00;37.41;99681.94;5073221;28;20020;-75
2022/04/03 08:58:03;;;;;;;14.15;8.90;;;;;;;4.64;38.59;99706.88;5073764;28;20086;-74
2022/04/03 09:00:32;;;;;;;19.20;11.48;;;;;;;4.24;39.88;99706.84;5073507;28;20056;-75
2022/04/03 09:02:57;;;;;;;15.90;10.07;;;;;;;4.22;40.97;99709.44;5073632;28;20063;-75
2022/04/03 09:05:34;;;;;;;26.08;17.00;;;;;;;3.98;41.01;99697.03;5073849;28;20389;-75
2022/04/03 09:08:01;;;;;;;25.25;9.02;;;;;;;3.87;41.99;99689.50;5073730;28;20035;-75
2022/04/03 09:10:26;;;;;;;13.57;6.25;;;;;;;3.89;42.33;99699.78;5073470;28;20020;-75
2022/04/03 09:12:52;;;;;;;17.35;7.03;;;;;;;3.78;42.45;99681.94;5073626;28;20031;-75
2022/04/03 09:15:20;;;;;;;13.50;7.07;;;;;;;3.86;40.84;99669.75;5073328;28;20024;-75
2022/04/03 09:17:52;;;;;;;11.77;4.20;;;;;;;4.38;39.62;99679.06;5073306;28;20384;-75
2022/04/03 09:20:30;;;;;;;13.88;6.65;;;;;;;4.88;38.60;99684.81;5073311;28;20539;-75
2022/04/03 09:23:01;;;;;;;15.63;7.10;;;;;;;4.89;36.75;99690.84;5073003;28;20024;-75
2022/04/03 09:25:34;;;;;;;9.20;4.82;;;;;;;4.55;37.83;99688.13;5072695;28;20056;-75
2022/04/03 09:28:01;;;;;;;7.90;4.80;;;;;;;4.16;39.09;99675.19;5072907;28;20024;-75
2022/04/03 09:30:38;;;;;;;13.55;6.15;;;;;;;4.20;40.06;99695.72;5072927;28;20097;-75
2022/04/03 09:33:09;;;;;;;10.60;5.45;;;;;;;4.12;40.55;99715.66;5072988;28;20028;-76
2022/04/03 09:35:53;;;;;;;11.93;5.18;;;;;;;4.10;41.08;99716.56;5072772;28;20605;-76
2022/04/03 09:38:18;;;;;;;20.63;10.65;;;;;;;3.97;41.69;99700.50;5072665;28;20034;-78
2022/04/03 09:40:48;;;;;;;14.25;8.20;;;;;;;3.94;42.49;99719.44;5072442;28;20142;-79
2022/04/03 09:43:15;;;;;;;10.40;4.68;;;;;;;3.70;43.41;99714.72;5072871;28;20029;-79
2022/04/03 09:45:52;;;;;;;21.10;11.88;;;;;;;3.44;44.85;99699.72;5072807;28;20081;-79
2022/04/03 09:48:19;;;;;;;19.77;11.77;;;;;;;3.41;46.04;99708.34;5054521;28;20064;-76
2022/04/03 09:51:19;;;;;;;21.95;11.23;;;;;;;3.38;47.75;99723.00;5072256;28;20024;-76
2022/04/03 09:53:48;;;;;;;19.77;11.27;;;;;;;3.41;48.69;99721.22;5010269;28;20541;-77
2022/04/03 09:56:27;;;;;;;13.48;6.72;;;;;;;3.53;48.46;99719.31;5010582;28;20022;-77
2022/04/03 09:58:53;;;;;;;10.98;6.60;;;;;;;3.83;48.41;99713.63;5010422;28;20589;-78
2022/04/03 10:01:26;;;;;;;11.30;6.90;;;;;;;4.07;47.61;99708.91;5010307;28;20052;-76
2022/04/03 10:03:53;;;;;;;25.83;13.32;;;;;;;4.33;46.94;99696.31;5010116;28;20153;-73
2022/04/03 10:06:19;;;;;;;17.77;10.75;;;;;;;4.53;45.22;99703.66;5010132;28;20026;-74
2022/04/03 10:08:46;;;;;;;44.83;26.48;;;;;;;4.60;43.68;99702.66;5009023;28;20670;-74
2022/04/03 10:11:12;;;;;;;11.88;8.15;;;;;;;4.99;44.41;99710.38;5009985;28;20501;-74
2022/04/03 10:13:38;;;;;;;10.98;6.45;;;;;;;5.28;43.34;99683.88;5009936;28;20057;-74
2022/04/03 10:16:04;;;;;;;16.05;8.73;;;;;;;5.40;42.79;99703.41;5019878;28;20064;-74
2022/04/03 10:18:30;;;;;;;15.57;7.57;;;;;;;5.22;41.95;99709.84;5029549;28;20048;-74
2022/04/03 10:20:55;;;;;;;11.05;6.70;;;;;;;4.70;42.40;99708.47;5029847;28;20109;-74
2022/04/03 10:23:24;;;;;;;18.17;9.15;;;;;;;4.59;43.40;99719.00;5029716;28;20090;-74
2022/04/03 10:25:52;;;;;;;14.40;7.72;;;;;;;4.40;43.25;99707.38;5029551;28;20025;-74
2022/04/03 10:28:20;;;;;;;12.15;6.40;;;;;;;4.08;43.33;99702.84;5029520;28;20457;-74
2022/04/03 10:30:56;;;;;;;6.50;4.13;;;;;;;3.96;43.84;99701.34;5063126;28;20040;-74
2022/04/03 10:33:24;;;;;;;14.30;6.97;;;;;;;4.14;43.75;99716.47;5071959;28;20081;-73
2022/04/03 10:36:03;;;;;;;27.52;11.98;;;;;;;4.31;44.55;99713.56;5071788;28;20541;-75
2022/04/03 10:38:59;;;;;;;7.03;4.60;;;;;;;4.36;42.71;99706.59;5071866;28;20035;-75
2022/04/03 10:41:27;;;;;;;6.80;4.40;;;;;;;4.37;42.76;99695.38;5076464;28;20388;-78
2022/04/03 10:44:15;;;;;;;16.45;8.07;;;;;;;4.58;42.20;99685.50;5071822;28;20032;-80
2022/04/03 10:46:59;;;;;;;15.68;8.40;;;;;;;4.99;41.07;99707.81;5072594;28;20388;-79
2022/04/03 10:50:01;;;;;;;14.85;8.35;;;;;;;5.07;39.60;99705.91;5072405;28;20032;-78
2022/04/03 10:52:38;;;;;;;11.52;5.93;;;;;;;5.05;39.50;99701.66;4990658;28;20126;-76
2022/04/03 10:55:29;;;;;;;6.75;4.30;;;;;;;4.98;39.50;99706.97;4990329;28;20390;-79
2022/04/03 10:58:02;;;;;;;7.53;5.32;;;;;;;4.96;39.30;99707.88;4990442;28;20042;-79
2022/04/03 11:00:27;;;;;;;10.23;6.60;;;;;;;5.06;39.50;99704.22;4990435;28;20430;-78
2022/04/03 11:02:55;;;;;;;12.02;6.47;;;;;;;5.06;38.46;99708.53;4990156;28;20038;-79
2022/04/03 11:05:21;;;;;;;17.15;9.20;;;;;;;5.03;38.53;99709.44;4990501;28;20549;-79
2022/04/03 11:07:46;;;;;;;16.45;7.88;;;;;;;4.96;38.39;99705.28;4996935;28;20110;-79
2022/04/03 11:10:11;;;;;;;11.45;6.93;;;;;;;4.83;38.66;99685.81;5009807;28;20152;-79
2022/04/03 11:12:54;;;;;;;16.88;8.40;;;;;;;4.77;38.85;99673.91;5010261;28;20033;-79
2022/04/03 11:15:20;;;;;;;11.82;7.70;;;;;;;5.08;38.93;99699.00;5010142;28;20506;-78
2022/04/03 11:17:48;;;;;;;15.15;8.88;;;;;;;5.30;37.66;99701.91;4993357;28;20095;-79
2022/04/03 11:20:40;;;;;;;14.98;8.85;;;;;;;5.31;38.10;99694.16;4996122;28;20077;-78
2022/04/03 11:23:09;;;;;;;13.63;8.48;;;;;;;5.20;37.73;99676.31;5013936;28;20042;-77
2022/04/03 11:25:34;;;;;;;11.70;7.55;;;;;;;5.18;38.23;99679.81;5013146;28;20029;-76
2022/04/03 11:27:59;;;;;;;9.43;5.97;;;;;;;5.16;38.29;99679.03;5025544;28;20399;-76
2022/04/03 11:30:25;;;;;;;8.50;5.18;;;;;;;5.06;36.42;99669.81;5075395;28;20078;-75
2022/04/03 11:32:51;;;;;;;5.78;4.40;;;;;;;5.14;36.13;99680.78;5075025;28;20034;-78
2022/04/03 11:35:31;;;;;;;5.40;3.88;;;;;;;5.29;36.09;99659.75;5075599;28;20027;-76
2022/04/03 11:37:57;;;;;;;6.97;4.30;;;;;;;5.58;36.92;99668.50;5075431;28;20032;-78
2022/04/03 11:40:23;;;;;;;9.77;5.38;;;;;;;5.83;36.91;99660.94;5075585;28;20077;-77
2022/04/03 11:42:49;;;;;;;5.80;3.65;;;;;;;6.02;36.16;99650.97;5090599;28;20100;-78
2022/04/03 11:45:14;;;;;;;5.95;3.92;;;;;;;6.13;35.72;99647.19;5095475;28;20450;-78
2022/04/03 11:47:39;;;;;;;4.30;3.20;;;;;;;6.40;34.70;99661.06;5076896;28;20177;-77